createdAt,value
2023-05-01T00:00:22.387Z,7.17
2023-05-01T00:02:54.588Z,7.14
2023-05-01T00:05:22.942Z,7.11
2023-05-01T00:07:51.128Z,6.97
2023-05-01T00:10:20.694Z,7.02
2023-05-01T00:12:48.825Z,6.89
2023-05-01T00:15:17.367Z,6.96
2023-05-01T00:17:45.543Z,6.89
2023-05-01T00:20:14.438Z,6.83
2023-05-01T00:22:42.606Z,6.85
2023-05-01T00:25:11.785Z,6.82
2023-05-01T00:27:41.291Z,6.77
2023-05-01T00:30:10.233Z,6.72
2023-05-01T00:32:38.860Z,6.78
2023-05-01T00:35:07.556Z,6.73
2023-05-01T00:37:35.778Z,6.68
2023-05-01T00:40:05.349Z,6.68
2023-05-01T00:42:36.545Z,6.62
2023-05-01T00:45:07.051Z,6.63
2023-05-01T00:47:37.046Z,6.62
2023-05-01T00:50:06.263Z,6.57
2023-05-01T00:52:34.494Z,6.48
2023-05-01T00:55:02.782Z,6.47
2023-05-01T00:57:31.009Z,6.47
2023-05-01T00:59:59.350Z,6.41
2023-05-01T01:02:28.959Z,6.37
2023-05-01T01:04:57.198Z,6.41
2023-05-01T01:07:41.228Z,6.39
2023-05-01T01:10:18.525Z,6.37
2023-05-01T01:12:54.730Z,6.27
2023-05-01T01:15:30.484Z,6.41
2023-05-01T01:18:09.268Z,6.35
2023-05-01T01:20:48.170Z,6.34
2023-05-01T01:23:44.172Z,6.37
2023-05-01T01:26:29.612Z,6.34
2023-05-01T01:29:32.334Z,6.34
2023-05-01T01:32:10.643Z,6.28
2023-05-01T01:34:46.284Z,6.31
2023-05-01T01:37:20.959Z,6.25
2023-05-01T01:39:54.755Z,6.22
2023-05-01T01:42:31.797Z,6.19
2023-05-01T01:45:05.120Z,6.09
2023-05-01T01:47:35.718Z,6.12
2023-05-01T01:50:09.647Z,6.09
2023-05-01T01:52:40.099Z,6.10
2023-05-01T01:55:12.779Z,6.09
2023-05-01T01:57:44.082Z,6.06
2023-05-01T02:00:16.587Z,6.09
2023-05-01T02:02:49.262Z,5.97
2023-05-01T02:05:20.744Z,6.02
2023-05-01T02:07:51.600Z,5.97
2023-05-01T02:10:21.564Z,5.96
2023-05-01T02:12:52.311Z,5.93
2023-05-01T02:15:21.792Z,5.93
2023-05-01T02:17:52.459Z,5.91
2023-05-01T02:20:23.302Z,5.93
2023-05-01T02:22:53.833Z,5.90
2023-05-01T02:25:22.352Z,5.83
2023-05-01T02:27:56.928Z,5.84
2023-05-01T02:30:25.261Z,5.86
2023-05-01T02:32:54.102Z,5.75
2023-05-01T02:35:23.736Z,5.81
2023-05-01T02:37:52.517Z,5.77
2023-05-01T02:40:21.356Z,5.79
2023-05-01T02:42:53.215Z,5.81
2023-05-01T02:45:26.937Z,5.72
2023-05-01T02:47:59.889Z,5.74
2023-05-01T02:50:30.798Z,5.66
2023-05-01T02:53:00.164Z,5.73
2023-05-01T02:55:42.863Z,5.65
2023-05-01T02:58:16.621Z,5.65
2023-05-01T03:00:45.750Z,5.64
2023-05-01T03:03:14.204Z,5.68
2023-05-01T03:05:44.063Z,5.70
2023-05-01T03:08:12.889Z,5.69
2023-05-01T03:10:42.741Z,5.73
2023-05-01T03:13:11.737Z,5.71
2023-05-01T03:15:40.349Z,5.71
2023-05-01T03:18:09.668Z,5.72
2023-05-01T03:20:37.986Z,5.76
2023-05-01T03:23:07.777Z,5.75
2023-05-01T03:25:35.894Z,5.73
2023-05-01T03:28:04.978Z,5.76
2023-05-01T03:30:35.371Z,5.76
2023-05-01T03:33:04.422Z,5.72
2023-05-01T03:35:34.112Z,5.83
2023-05-01T03:38:02.583Z,5.89
2023-05-01T03:40:50.721Z,5.97
2023-05-01T03:43:37.376Z,6.07
2023-05-01T03:46:11.133Z,6.14
2023-05-01T03:48:39.321Z,6.26
2023-05-01T03:51:08.005Z,6.23
2023-05-01T03:53:37.949Z,6.24
2023-05-01T03:56:09.524Z,6.33
2023-05-01T03:58:37.721Z,6.37
2023-05-01T04:01:06.458Z,6.40
2023-05-01T04:03:38.401Z,6.43
2023-05-01T04:06:07.717Z,6.49
2023-05-01T04:08:36.146Z,6.49
2023-05-01T04:11:04.328Z,6.59
2023-05-01T04:13:33.924Z,6.71
2023-05-01T04:16:03.406Z,6.73
2023-05-01T04:18:32.188Z,6.81
2023-05-01T04:21:01.022Z,6.83
2023-05-01T04:23:29.273Z,6.87
2023-05-01T04:25:59.995Z,6.94
2023-05-01T04:28:31.124Z,7.09
2023-05-01T04:31:00.928Z,7.15
2023-05-01T04:33:29.417Z,7.27
2023-05-01T04:35:57.617Z,7.43
2023-05-01T04:38:26.183Z,7.48
2023-05-01T04:40:56.723Z,7.52
2023-05-01T04:43:24.975Z,7.67
2023-05-01T04:45:53.123Z,7.76
2023-05-01T04:48:22.636Z,7.82
2023-05-01T04:50:51.471Z,7.84
2023-05-01T04:53:19.704Z,7.93
2023-05-01T04:55:48.239Z,7.96
2023-05-01T04:58:17.903Z,8.07
2023-05-01T05:00:49.056Z,8.16
2023-05-01T05:03:23.719Z,8.13
2023-05-01T05:05:51.949Z,8.23
2023-05-01T05:08:20.521Z,8.32
2023-05-01T05:10:59.377Z,8.36
2023-05-01T05:13:31.488Z,8.42
2023-05-01T05:16:03.820Z,8.48
2023-05-01T05:18:34.366Z,8.50
2023-05-01T05:21:05.434Z,8.62
2023-05-01T05:23:34.113Z,8.66
2023-05-01T05:26:03.029Z,8.67
2023-05-01T05:28:33.023Z,8.69
2023-05-01T05:31:01.745Z,8.72
2023-05-01T05:33:30.553Z,8.79
2023-05-01T05:36:01.108Z,8.87
2023-05-01T05:38:35.135Z,8.79
2023-05-01T05:41:05.043Z,8.84
2023-05-01T05:43:33.595Z,8.91
2023-05-01T05:46:02.479Z,8.89
2023-05-01T05:48:33.576Z,8.92
2023-05-01T05:51:03.298Z,9.14
2023-05-01T05:53:31.576Z,9.19
2023-05-01T05:55:59.997Z,9.20
2023-05-01T05:58:28.815Z,9.28
2023-05-01T06:00:57.146Z,9.45
2023-05-01T06:03:25.550Z,9.72
2023-05-01T06:05:58.440Z,9.99
2023-05-01T06:08:28.514Z,10.25
2023-05-01T06:10:58.996Z,10.20
2023-05-01T06:13:28.527Z,10.49
2023-05-01T06:15:57.455Z,10.75
2023-05-01T06:18:26.265Z,11.08
2023-05-01T06:20:54.570Z,11.28
2023-05-01T06:23:22.889Z,11.58
2023-05-01T06:26:15.608Z,11.85
2023-05-01T06:28:43.903Z,12.16
2023-05-01T06:31:12.162Z,12.09
2023-05-01T06:33:47.403Z,12.40
2023-05-01T06:36:23.722Z,12.63
2023-05-01T06:38:51.927Z,13.06
2023-05-01T06:41:22.185Z,13.22
2023-05-01T06:43:50.413Z,13.02
2023-05-01T06:46:18.920Z,13.24
2023-05-01T06:48:49.001Z,13.40
2023-05-01T06:51:17.240Z,13.49
2023-05-01T06:53:46.380Z,13.62
2023-05-01T06:56:14.720Z,13.96
2023-05-01T06:58:44.389Z,13.97
2023-05-01T07:01:12.679Z,14.14
2023-05-01T07:03:41.294Z,14.37
2023-05-01T07:06:09.482Z,14.53
2023-05-01T07:08:37.569Z,14.52
2023-05-01T07:11:05.889Z,14.69
2023-05-01T07:13:33.920Z,14.77
2023-05-01T07:16:03.488Z,15.00
2023-05-01T07:18:31.636Z,15.44
2023-05-01T07:20:59.839Z,15.72
2023-05-01T07:23:27.965Z,15.86
2023-05-01T07:25:57.057Z,16.02
2023-05-01T07:28:25.121Z,16.31
2023-05-01T07:30:53.379Z,16.51
2023-05-01T07:33:23.604Z,16.65
2023-05-01T07:35:52.033Z,16.97
2023-05-01T07:38:20.134Z,17.39
2023-05-01T07:40:48.451Z,17.75
2023-05-01T07:43:16.848Z,18.48
2023-05-01T07:45:56.133Z,19.33
2023-05-01T07:48:26.121Z,19.86
2023-05-01T07:50:54.705Z,20.92
2023-05-01T07:53:23.750Z,21.02
2023-05-01T07:55:52.235Z,20.74
2023-05-01T07:58:20.826Z,20.78
2023-05-01T08:00:49.014Z,21.30
2023-05-01T08:03:17.239Z,21.32
2023-05-01T08:05:46.972Z,20.31
2023-05-01T08:08:20.586Z,20.05
2023-05-01T08:10:49.107Z,19.91
2023-05-01T08:13:17.389Z,19.71
2023-05-01T08:15:47.208Z,20.90
2023-05-01T08:18:20.524Z,20.88
2023-05-01T08:20:50.722Z,20.49
2023-05-01T08:23:18.995Z,21.17
2023-05-01T08:25:51.092Z,21.54
2023-05-01T08:28:20.932Z,22.65
2023-05-01T08:30:50.493Z,23.44
2023-05-01T08:33:18.917Z,24.64
2023-05-01T08:35:47.061Z,25.10
2023-05-01T08:38:16.967Z,26.73
2023-05-01T08:40:49.959Z,26.50
2023-05-01T08:43:19.138Z,28.56
2023-05-01T08:45:49.012Z,28.03
2023-05-01T08:48:19.608Z,26.36
2023-05-01T08:50:48.756Z,28.88
2023-05-01T08:53:20.879Z,27.69
2023-05-01T08:55:51.829Z,25.71
2023-05-01T08:58:20.568Z,26.47
2023-05-01T09:00:49.023Z,26.83
2023-05-01T09:03:18.855Z,27.01
2023-05-01T09:05:47.897Z,26.51
2023-05-01T09:08:16.072Z,27.42
2023-05-01T09:10:48.870Z,26.47
2023-05-01T09:13:17.274Z,26.95
2023-05-01T09:15:45.689Z,26.17
2023-05-01T09:18:14.094Z,24.62
2023-05-01T09:20:43.152Z,23.85
2023-05-01T09:23:11.282Z,23.30
2023-05-01T09:25:39.598Z,23.60
2023-05-01T09:28:09.209Z,22.02
2023-05-01T09:30:38.757Z,23.14
2023-05-01T09:33:11.195Z,22.93
2023-05-01T09:35:54.937Z,22.74
2023-05-01T09:38:24.758Z,21.74
2023-05-01T09:40:56.672Z,21.82
2023-05-01T09:43:31.628Z,21.81
2023-05-01T09:46:09.529Z,21.59
2023-05-01T09:48:38.835Z,21.71
2023-05-01T09:51:32.056Z,23.13
2023-05-01T09:54:01.705Z,23.53
2023-05-01T09:56:31.586Z,24.58
2023-05-01T09:59:16.096Z,25.93
2023-05-01T10:01:46.650Z,26.41
2023-05-01T10:04:15.710Z,28.23
2023-05-01T10:06:43.985Z,26.35
2023-05-01T10:09:17.562Z,25.41
2023-05-01T10:11:50.054Z,26.23
2023-05-01T10:14:20.477Z,24.95
2023-05-01T10:16:49.703Z,24.14
2023-05-01T10:19:18.862Z,26.32
2023-05-01T10:21:47.167Z,26.79
2023-05-01T10:24:17.076Z,25.32
2023-05-01T10:26:45.935Z,24.36
2023-05-01T10:29:14.458Z,24.26
2023-05-01T10:31:44.049Z,24.28
2023-05-01T10:34:17.915Z,24.15
2023-05-01T10:36:49.032Z,23.94
2023-05-01T10:39:33.597Z,23.23
2023-05-01T10:42:03.821Z,22.34
2023-05-01T10:44:32.570Z,22.04
2023-05-01T10:47:22.111Z,22.65
2023-05-01T10:50:07.238Z,23.21
2023-05-01T10:53:08.586Z,23.60
2023-05-01T10:55:37.498Z,24.18
2023-05-01T10:58:05.751Z,24.13
2023-05-01T11:00:34.453Z,23.37
2023-05-01T11:03:37.530Z,22.48
2023-05-01T11:06:09.387Z,23.02
2023-05-01T11:08:38.948Z,22.64
2023-05-01T11:11:44.635Z,22.37
2023-05-01T11:14:12.764Z,22.15
2023-05-01T11:16:48.311Z,22.24
2023-05-01T11:19:49.639Z,21.32
2023-05-01T11:22:18.419Z,20.66
2023-05-01T11:24:48.064Z,20.37
2023-05-01T11:27:17.094Z,20.18
2023-05-01T11:29:51.037Z,20.18
2023-05-01T11:32:27.344Z,20.58
2023-05-01T11:34:57.806Z,21.14
2023-05-01T11:37:41.332Z,21.77
2023-05-01T11:40:21.502Z,22.25
2023-05-01T11:42:50.102Z,22.51
2023-05-01T11:45:19.932Z,23.44
2023-05-01T11:47:49.296Z,24.07
2023-05-01T11:50:18.970Z,24.54
2023-05-01T11:52:49.731Z,25.08
2023-05-01T11:55:18.120Z,25.16
2023-05-01T11:57:50.102Z,24.73
2023-05-01T12:00:28.434Z,24.77
2023-05-01T12:02:58.773Z,25.65
2023-05-01T12:05:29.584Z,26.78
2023-05-01T12:08:09.920Z,25.78
2023-05-01T12:10:38.962Z,25.55
2023-05-01T12:13:08.723Z,24.68
2023-05-01T12:15:38.351Z,23.46
2023-05-01T12:18:06.981Z,23.38
2023-05-01T12:20:41.704Z,24.42
2023-05-01T12:23:11.775Z,24.98
2023-05-01T12:25:41.081Z,25.11
2023-05-01T12:28:11.455Z,23.91
2023-05-01T12:30:40.363Z,22.18
2023-05-01T12:33:13.292Z,21.18
2023-05-01T12:35:45.495Z,20.78
2023-05-01T12:38:15.414Z,20.36
2023-05-01T12:40:53.916Z,20.48
2023-05-01T12:43:23.140Z,20.42
2023-05-01T12:45:54.905Z,20.01
2023-05-01T12:48:26.888Z,20.02
2023-05-01T12:50:58.096Z,19.76
2023-05-01T12:53:27.715Z,19.45
2023-05-01T12:55:57.591Z,19.34
2023-05-01T12:58:36.153Z,19.37
2023-05-01T13:01:04.617Z,19.17
2023-05-01T13:03:38.389Z,19.41
2023-05-01T13:06:10.337Z,19.49
2023-05-01T13:08:40.173Z,19.53
2023-05-01T13:11:13.727Z,19.74
2023-05-01T13:13:42.608Z,19.76
2023-05-01T13:16:12.932Z,19.92
2023-05-01T13:18:48.938Z,19.81
2023-05-01T13:21:22.092Z,19.74
2023-05-01T13:23:54.915Z,20.00
2023-05-01T13:26:28.483Z,20.12
2023-05-01T13:28:58.729Z,20.08
2023-05-01T13:31:27.623Z,20.02
2023-05-01T13:33:58.747Z,19.85
2023-05-01T13:36:33.520Z,19.50
2023-05-01T13:39:02.166Z,20.07
2023-05-01T13:41:30.609Z,20.35
2023-05-01T13:43:58.851Z,20.68
2023-05-01T13:46:28.573Z,20.50
2023-05-01T13:48:58.358Z,20.60
2023-05-01T13:51:29.861Z,20.75
2023-05-01T13:53:58.341Z,21.07
2023-05-01T13:56:26.969Z,21.14
2023-05-01T13:58:55.306Z,20.87
2023-05-01T14:01:24.053Z,20.88
2023-05-01T14:03:52.491Z,21.15
2023-05-01T14:06:22.242Z,20.68
2023-05-01T14:08:54.501Z,20.20
2023-05-01T14:11:22.680Z,19.95
2023-05-01T14:13:52.146Z,20.46
2023-05-01T14:16:25.107Z,20.46
2023-05-01T14:18:55.461Z,20.51
2023-05-01T14:21:25.661Z,21.01
2023-05-01T14:23:56.750Z,20.85
2023-05-01T14:26:25.185Z,20.44
2023-05-01T14:28:54.731Z,20.65
2023-05-01T14:31:27.353Z,20.68
2023-05-01T14:33:58.005Z,20.24
2023-05-01T14:36:26.781Z,20.28
2023-05-01T14:38:57.883Z,19.88
2023-05-01T14:41:26.223Z,19.93
2023-05-01T14:43:54.842Z,19.56
2023-05-01T14:46:30.832Z,19.40
2023-05-01T14:48:59.544Z,19.19
2023-05-01T14:51:28.625Z,19.06
2023-05-01T14:53:58.305Z,19.11
2023-05-01T14:56:26.510Z,19.02
2023-05-01T14:58:54.578Z,18.97
2023-05-01T15:01:22.877Z,18.76
2023-05-01T15:03:51.234Z,18.85
2023-05-01T15:06:19.378Z,18.99
2023-05-01T15:08:47.568Z,19.12
2023-05-01T15:11:18.736Z,19.17
2023-05-01T15:13:48.959Z,19.17
2023-05-01T15:16:17.681Z,19.19
2023-05-01T15:18:45.937Z,19.22
2023-05-01T15:21:14.096Z,19.08
2023-05-01T15:23:45.273Z,18.96
2023-05-01T15:26:13.926Z,18.85
2023-05-01T15:28:43.448Z,18.93
2023-05-01T15:31:11.654Z,19.00
2023-05-01T15:33:39.940Z,19.04
2023-05-01T15:36:08.739Z,18.89
2023-05-01T15:38:37.104Z,18.89
2023-05-01T15:41:05.591Z,18.87
2023-05-01T15:43:33.652Z,18.79
2023-05-01T15:46:03.707Z,18.68
2023-05-01T15:48:32.772Z,18.70
2023-05-01T15:51:00.972Z,18.77
2023-05-01T15:53:29.156Z,18.77
2023-05-01T15:55:58.591Z,18.74
2023-05-01T15:58:26.799Z,18.56
2023-05-01T16:00:55.830Z,18.53
2023-05-01T16:03:26.266Z,18.47
2023-05-01T16:05:56.259Z,18.39
2023-05-01T16:08:24.562Z,18.39
2023-05-01T16:10:53.967Z,18.40
2023-05-01T16:13:22.252Z,18.29
2023-05-01T16:15:50.386Z,18.23
2023-05-01T16:18:21.306Z,18.12
2023-05-01T16:20:53.518Z,18.22
2023-05-01T16:23:22.237Z,18.23
2023-05-01T16:25:50.394Z,18.21
2023-05-01T16:28:18.781Z,18.15
2023-05-01T16:30:47.231Z,18.13
2023-05-01T16:33:18.951Z,18.10
2023-05-01T16:35:48.575Z,18.00
2023-05-01T16:38:18.567Z,17.95
2023-05-01T16:40:48.215Z,17.88
2023-05-01T16:43:16.632Z,17.83
2023-05-01T16:45:44.730Z,17.91
2023-05-01T16:48:15.388Z,17.92
2023-05-01T16:50:43.637Z,17.82
2023-05-01T16:53:11.772Z,17.74
2023-05-01T16:55:41.388Z,17.71
2023-05-01T16:58:09.666Z,17.69
2023-05-01T17:00:37.728Z,17.60
2023-05-01T17:03:06.044Z,17.58
2023-05-01T17:05:34.265Z,17.49
2023-05-01T17:08:02.428Z,17.44
2023-05-01T17:10:30.455Z,17.41
2023-05-01T17:12:59.949Z,17.35
2023-05-01T17:15:28.174Z,17.37
2023-05-01T17:17:56.369Z,17.36
2023-05-01T17:20:24.622Z,17.26
2023-05-01T17:22:52.902Z,17.21
2023-05-01T17:25:21.130Z,17.12
2023-05-01T17:27:49.207Z,17.03
2023-05-01T17:30:19.518Z,16.97
2023-05-01T17:32:48.050Z,16.92
2023-05-01T17:35:16.920Z,16.82
2023-05-01T17:37:45.337Z,16.74
2023-05-01T17:40:13.863Z,16.63
2023-05-01T17:42:42.177Z,16.59
2023-05-01T17:45:11.153Z,16.50
2023-05-01T17:47:43.197Z,16.45
2023-05-01T17:50:13.029Z,16.33
2023-05-01T17:52:42.293Z,16.29
2023-05-01T17:55:11.152Z,16.17
2023-05-01T17:57:40.520Z,16.11
2023-05-01T18:00:11.554Z,16.01
2023-05-01T18:02:45.039Z,15.89
2023-05-01T18:05:14.975Z,15.84
2023-05-01T18:07:43.194Z,15.79
2023-05-01T18:10:12.554Z,15.61
2023-05-01T18:12:42.319Z,15.64
2023-05-01T18:15:11.671Z,15.59
2023-05-01T18:17:40.353Z,15.46
2023-05-01T18:20:11.041Z,15.36
2023-05-01T18:22:39.882Z,15.35
2023-05-01T18:25:09.429Z,15.26
2023-05-01T18:27:38.323Z,15.18
2023-05-01T18:30:07.812Z,15.09
2023-05-01T18:32:47.609Z,15.02
2023-05-01T18:35:19.341Z,14.98
2023-05-01T18:37:48.766Z,14.95
2023-05-01T18:40:17.566Z,14.88
2023-05-01T18:42:49.206Z,14.86
2023-05-01T18:45:18.679Z,14.87
2023-05-01T18:47:47.966Z,14.82
2023-05-01T18:50:23.590Z,14.73
2023-05-01T18:52:52.854Z,14.71
2023-05-01T18:55:22.323Z,14.71
2023-05-01T18:57:51.345Z,14.70
2023-05-01T19:00:24.113Z,14.72
2023-05-01T19:02:54.055Z,14.72
2023-05-01T19:05:25.747Z,14.75
2023-05-01T19:07:55.714Z,14.75
2023-05-01T19:10:24.716Z,14.75
2023-05-01T19:12:54.660Z,14.72
2023-05-01T19:15:23.712Z,14.71
2023-05-01T19:17:54.009Z,14.73
2023-05-01T19:20:27.240Z,14.75
2023-05-01T19:22:57.245Z,14.73
2023-05-01T19:25:29.720Z,14.69
2023-05-01T19:27:59.983Z,14.66
2023-05-01T19:30:28.463Z,14.71
2023-05-01T19:32:59.019Z,14.71
2023-05-01T19:35:29.202Z,14.69
2023-05-01T19:37:59.119Z,14.64
2023-05-01T19:40:27.438Z,14.51
2023-05-01T19:43:01.580Z,14.58
2023-05-01T19:45:31.718Z,14.56
2023-05-01T19:48:01.171Z,14.52
2023-05-01T19:50:33.541Z,14.53
2023-05-01T19:53:02.722Z,14.53
2023-05-01T19:55:31.067Z,14.50
2023-05-01T19:57:59.646Z,14.49
2023-05-01T20:00:29.313Z,14.40
2023-05-01T20:02:58.443Z,14.36
2023-05-01T20:05:28.479Z,14.30
2023-05-01T20:08:00.146Z,14.32
2023-05-01T20:10:28.934Z,14.32
2023-05-01T20:13:01.682Z,14.26
2023-05-01T20:15:31.430Z,14.23
2023-05-01T20:18:01.655Z,14.20
2023-05-01T20:20:30.520Z,14.21
2023-05-01T20:23:12.556Z,14.17
2023-05-01T20:25:41.540Z,14.13
2023-05-01T20:28:15.279Z,14.16
2023-05-01T20:30:44.881Z,14.14
2023-05-01T20:33:14.350Z,14.18
2023-05-01T20:35:42.513Z,14.13
2023-05-01T20:38:12.152Z,14.10
2023-05-01T20:40:41.301Z,14.08
2023-05-01T20:43:09.991Z,14.08
2023-05-01T20:45:38.638Z,14.08
2023-05-01T20:48:08.251Z,14.13
2023-05-01T20:50:36.626Z,14.06
2023-05-01T20:53:05.060Z,14.01
2023-05-01T20:55:34.613Z,13.98
2023-05-01T20:58:02.985Z,13.94
2023-05-01T21:00:31.298Z,13.95
2023-05-01T21:03:00.007Z,13.88
2023-05-01T21:05:28.862Z,13.94
2023-05-01T21:07:59.135Z,13.91
2023-05-01T21:10:27.273Z,13.82
2023-05-01T21:12:57.923Z,13.90
2023-05-01T21:15:27.059Z,13.87
2023-05-01T21:17:55.251Z,13.90
2023-05-01T21:20:31.941Z,13.84
2023-05-01T21:23:01.351Z,13.79
2023-05-01T21:25:31.918Z,13.84
2023-05-01T21:28:03.609Z,13.78
2023-05-01T21:30:33.700Z,13.79
2023-05-01T21:33:03.381Z,13.74
2023-05-01T21:35:31.972Z,13.69
2023-05-01T21:38:00.466Z,13.71
2023-05-01T21:40:28.629Z,13.63
2023-05-01T21:42:57.495Z,13.67
2023-05-01T21:45:27.988Z,13.66
2023-05-01T21:47:56.131Z,13.65
2023-05-01T21:50:24.891Z,13.65
2023-05-01T21:52:53.046Z,13.58
2023-05-01T21:55:22.658Z,13.49
2023-05-01T21:57:51.080Z,13.49
2023-05-01T22:00:21.244Z,13.46
2023-05-01T22:02:52.134Z,13.48
2023-05-01T22:05:23.208Z,13.48
2023-05-01T22:07:52.573Z,13.45
2023-05-01T22:10:21.120Z,13.40
2023-05-01T22:12:50.340Z,13.37
2023-05-01T22:15:18.529Z,13.33
2023-05-01T22:17:47.044Z,13.25
2023-05-01T22:20:16.751Z,13.32
2023-05-01T22:22:44.761Z,13.29
2023-05-01T22:25:13.307Z,13.29
2023-05-01T22:27:41.927Z,13.19
2023-05-01T22:30:11.250Z,13.16
2023-05-01T22:32:39.526Z,13.16
2023-05-01T22:35:09.030Z,13.12
2023-05-01T22:37:38.577Z,13.04
2023-05-01T22:40:08.398Z,12.95
2023-05-01T22:42:36.642Z,12.96
2023-05-01T22:45:05.238Z,12.96
2023-05-01T22:47:33.410Z,12.92
2023-05-01T22:50:01.922Z,12.94
2023-05-01T22:52:30.290Z,12.92
2023-05-01T22:54:59.744Z,12.90
2023-05-01T22:57:27.817Z,12.89
2023-05-01T22:59:56.067Z,12.84
2023-05-01T23:02:24.360Z,12.80
2023-05-01T23:04:52.516Z,12.72
2023-05-01T23:07:20.791Z,12.76
2023-05-01T23:09:48.937Z,12.75
2023-05-01T23:12:22.721Z,12.76
2023-05-01T23:14:50.811Z,12.74
2023-05-01T23:17:18.845Z,12.73
2023-05-01T23:19:47.300Z,12.72
2023-05-01T23:22:15.528Z,12.70
2023-05-01T23:24:47.663Z,12.63
2023-05-01T23:27:16.870Z,12.67
2023-05-01T23:29:55.300Z,12.59
2023-05-01T23:32:27.983Z,12.55
2023-05-01T23:34:57.626Z,12.51
2023-05-01T23:37:25.705Z,12.51
2023-05-01T23:39:54.372Z,12.43
2023-05-01T23:42:23.393Z,12.43
2023-05-01T23:44:53.033Z,12.39
2023-05-01T23:47:21.698Z,12.40
2023-05-01T23:49:50.357Z,12.36
2023-05-01T23:52:18.422Z,12.33
2023-05-01T23:54:46.517Z,12.36
2023-05-01T23:57:14.577Z,12.33
2023-05-01T23:59:42.718Z,12.34
